Terminal Aerodrome Forecast
Issued by NWS

Home | Current Version | Previous Version | Text Only | Print | Product List | Glossary On
Versions: 1 2 3 4 5 6 7 8 9 10 11 12 13 14 15 16
000
FTUS43 KABR 250321 AAA
TAFPIR
TAF AMD
KPIR 250321Z 2503/2524 05014KT P6SM VCTS SCT150CB
      TEMPO 2503/2505 TS BKN040CB
     FM251200 VRB05KT P6SM BKN120=

USA.gov is the U.S. government's official web portal to all federal, state and local government web resources and services.